createdAt,value
2018-03-14T00:00:57.078Z,1010.75
2018-03-14T00:02:05.765Z,1010.72
2018-03-14T00:03:14.736Z,1010.74
2018-03-14T00:04:23.706Z,1010.77
2018-03-14T00:05:32.397Z,1010.79
2018-03-14T00:06:41.384Z,1010.74
2018-03-14T00:07:50.642Z,1010.79
2018-03-14T00:08:59.330Z,1010.79
2018-03-14T00:10:08.589Z,1010.79
2018-03-14T00:11:17.575Z,1010.78
2018-03-14T00:12:27.415Z,1010.79
2018-03-14T00:13:36.956Z,1010.82
2018-03-14T00:14:46.204Z,1010.78
2018-03-14T00:15:55.188Z,1010.77
2018-03-14T00:17:04.457Z,1010.75
2018-03-14T00:18:13.433Z,1010.81
2018-03-14T00:19:22.765Z,1010.77
2018-03-14T00:20:32.027Z,1010.84
2018-03-14T00:21:40.998Z,1010.82
2018-03-14T00:22:49.984Z,1010.83
2018-03-14T00:23:58.673Z,1010.87
2018-03-14T00:25:07.668Z,1010.86
2018-03-14T00:26:16.630Z,1010.9
2018-03-14T00:27:25.319Z,1010.91
2018-03-14T00:28:34.303Z,1010.84
2018-03-14T00:29:43.557Z,1010.85
2018-03-14T00:30:52.242Z,1010.85
2018-03-14T00:32:01.511Z,1010.86
2018-03-14T00:33:11.039Z,1010.86
2018-03-14T00:34:19.726Z,1010.87
2018-03-14T00:35:28.417Z,1010.85
2018-03-14T00:36:37.680Z,1010.83
2018-03-14T00:37:46.928Z,1010.91
2018-03-14T00:38:55.620Z,1010.89
2018-03-14T00:40:04.891Z,1010.9
2018-03-14T00:41:14.166Z,1010.9
2018-03-14T00:42:23.409Z,1010.88
2018-03-14T00:43:32.681Z,1010.91
2018-03-14T00:44:41.943Z,1010.93
2018-03-14T00:45:51.193Z,1010.96
2018-03-14T00:47:00.162Z,1010.96
2018-03-14T00:48:09.443Z,1010.93
2018-03-14T00:49:18.729Z,1010.95
2018-03-14T00:50:28.002Z,1010.96
2018-03-14T00:51:36.977Z,1010.98
2018-03-14T00:52:46.246Z,1010.99
2018-03-14T00:53:55.258Z,1011
2018-03-14T00:55:03.954Z,1011.01
2018-03-14T00:56:12.933Z,1011.07
2018-03-14T00:57:22.181Z,1011.02
2018-03-14T00:58:31.753Z,1011.07
2018-03-14T00:59:41.009Z,1011.03
2018-03-14T01:00:49.697Z,1011.08
2018-03-14T01:01:58.692Z,1011.09
2018-03-14T01:03:08.507Z,1011.1
2018-03-14T01:04:17.775Z,1011.11
2018-03-14T01:05:27.019Z,1011.1
2018-03-14T01:06:36.870Z,1011.13
2018-03-14T01:07:46.179Z,1011.11
2018-03-14T01:08:55.487Z,1011.12
2018-03-14T01:10:04.738Z,1011.14
2018-03-14T01:11:14.314Z,1011.15
2018-03-14T01:12:23.863Z,1011.17
2018-03-14T01:13:33.462Z,1011.17
2018-03-14T01:14:43.898Z,1011.19
2018-03-14T01:15:52.903Z,1011.22
2018-03-14T01:17:03.937Z,1011.24
2018-03-14T01:18:12.926Z,1011.22
2018-03-14T01:19:22.624Z,1011.24
2018-03-14T01:20:31.596Z,1011.23
2018-03-14T01:21:41.994Z,1011.25
2018-03-14T01:22:51.780Z,1011.27
2018-03-14T01:24:01.660Z,1011.28
2018-03-14T01:25:11.634Z,1011.32
2018-03-14T01:26:21.885Z,1011.34
2018-03-14T01:27:31.898Z,1011.33
2018-03-14T01:28:40.867Z,1011.35
2018-03-14T01:29:49.860Z,1011.34
2018-03-14T01:30:59.864Z,1011.31
2018-03-14T01:32:08.841Z,1011.36
2018-03-14T01:33:17.812Z,1011.35
2018-03-14T01:34:27.448Z,1011.35
2018-03-14T01:35:36.721Z,1011.34
2018-03-14T01:36:46.326Z,1011.35
2018-03-14T01:37:55.023Z,1011.34
2018-03-14T01:39:04.012Z,1011.36
2018-03-14T01:40:13.273Z,1011.39
2018-03-14T01:41:22.812Z,1011.4
2018-03-14T01:42:32.389Z,1011.42
2018-03-14T01:43:41.384Z,1011.41
2018-03-14T01:44:50.352Z,1011.44
2018-03-14T01:45:59.320Z,1011.41
2018-03-14T01:47:08.291Z,1011.42
2018-03-14T01:48:16.978Z,1011.43
2018-03-14T01:49:26.248Z,1011.44
2018-03-14T01:50:34.942Z,1011.42
2018-03-14T01:51:43.910Z,1011.4
2018-03-14T01:52:52.603Z,1011.39
2018-03-14T01:54:01.293Z,1011.39
2018-03-14T01:55:10.263Z,1011.45
2018-03-14T01:56:20.086Z,1011.41
2018-03-14T01:57:29.641Z,1011.4
2018-03-14T01:58:38.609Z,1011.4
2018-03-14T01:59:48.434Z,1011.41
2018-03-14T02:00:57.402Z,1011.48
2018-03-14T02:02:06.680Z,1011.49
2018-03-14T02:03:15.372Z,1011.47
2018-03-14T02:04:24.624Z,1011.49
2018-03-14T02:05:33.590Z,1011.54
2018-03-14T02:06:42.856Z,1011.51
2018-03-14T02:07:51.831Z,1011.51
2018-03-14T02:09:01.368Z,1011.5
2018-03-14T02:10:10.936Z,1011.51
2018-03-14T02:11:19.903Z,1011.51
2018-03-14T02:12:28.592Z,1011.51
2018-03-14T02:13:37.856Z,1011.57
2018-03-14T02:14:47.675Z,1011.55
2018-03-14T02:15:57.001Z,1011.57
2018-03-14T02:17:05.693Z,1011.57
2018-03-14T02:18:14.958Z,1011.58
2018-03-14T02:19:24.807Z,1011.61
2018-03-14T02:20:34.072Z,1011.59
2018-03-14T02:21:43.599Z,1011.62
2018-03-14T02:22:52.896Z,1011.64
2018-03-14T02:24:02.176Z,1011.63
2018-03-14T02:25:11.140Z,1011.67
2018-03-14T02:26:20.108Z,1011.67
2018-03-14T02:27:29.088Z,1011.66
2018-03-14T02:28:38.935Z,1011.67
2018-03-14T02:29:47.903Z,1011.7
2018-03-14T02:30:56.878Z,1011.7
2018-03-14T02:32:06.155Z,1011.69
2018-03-14T02:33:15.414Z,1011.68
2018-03-14T02:34:24.385Z,1011.71
2018-03-14T02:35:33.947Z,1011.7
2018-03-14T02:36:43.204Z,1011.71
2018-03-14T02:37:52.186Z,1011.68
2018-03-14T02:39:01.464Z,1011.72
2018-03-14T02:40:10.713Z,1011.72
2018-03-14T02:41:19.680Z,1011.74
2018-03-14T02:42:29.238Z,1011.74
2018-03-14T02:43:38.511Z,1011.73
2018-03-14T02:44:47.771Z,1011.77
2018-03-14T02:45:56.995Z,1011.76
2018-03-14T02:47:06.758Z,1011.81
2018-03-14T02:48:15.993Z,1011.75
2018-03-14T02:49:24.953Z,1011.79
2018-03-14T02:50:33.643Z,1011.83
2018-03-14T02:51:43.147Z,1011.79
2018-03-14T02:52:52.111Z,1011.83
2018-03-14T02:54:01.342Z,1011.87
2018-03-14T02:55:10.303Z,1011.87
2018-03-14T02:56:19.800Z,1011.86
2018-03-14T02:57:29.022Z,1011.9
2018-03-14T02:58:38.517Z,1011.85
2018-03-14T02:59:47.206Z,1011.86
2018-03-14T03:00:56.164Z,1011.85
2018-03-14T03:02:05.121Z,1011.86
2018-03-14T03:03:13.814Z,1011.88
2018-03-14T03:04:23.039Z,1011.87
2018-03-14T03:05:32.018Z,1011.9
2018-03-14T03:06:40.712Z,1011.89
2018-03-14T03:07:49.667Z,1011.87
2018-03-14T03:08:58.904Z,1011.91
2018-03-14T03:10:07.595Z,1011.89
2018-03-14T03:11:16.825Z,1011.89
2018-03-14T03:12:26.314Z,1011.87
2018-03-14T03:13:35.809Z,1011.87
2018-03-14T03:14:45.044Z,1011.86
2018-03-14T03:15:54.274Z,1011.84
2018-03-14T03:17:03.765Z,1011.85
2018-03-14T03:18:12.726Z,1011.86
2018-03-14T03:19:21.416Z,1011.89
2018-03-14T03:20:30.374Z,1011.87
2018-03-14T03:21:39.600Z,1011.9
2018-03-14T03:22:49.362Z,1011.93
2018-03-14T03:23:58.586Z,1011.92
2018-03-14T03:25:08.078Z,1011.9
2018-03-14T03:26:17.304Z,1011.94
2018-03-14T03:27:26.530Z,1011.95
2018-03-14T03:28:35.757Z,1011.93
2018-03-14T03:29:45.530Z,1011.97
2018-03-14T03:30:55.025Z,1011.99
2018-03-14T03:32:04.535Z,1011.96
2018-03-14T03:33:13.502Z,1011.98
2018-03-14T03:34:22.990Z,1012.01
2018-03-14T03:35:31.678Z,1011.97
2018-03-14T03:36:40.905Z,1012.02
2018-03-14T03:37:50.400Z,1012.05
2018-03-14T03:38:59.356Z,1012.04
2018-03-14T03:40:08.849Z,1012.07
2018-03-14T03:41:18.079Z,1012.04
2018-03-14T03:42:26.768Z,1012.07
2018-03-14T03:43:35.991Z,1012.06
2018-03-14T03:44:45.211Z,1012.06
2018-03-14T03:45:54.968Z,1012.04
2018-03-14T03:47:04.732Z,1012.06
2018-03-14T03:48:14.236Z,1012.05
2018-03-14T03:49:23.732Z,1012.06
2018-03-14T03:50:32.423Z,1012.03
2018-03-14T03:51:41.383Z,1012.05
2018-03-14T03:52:50.074Z,1012.04
2018-03-14T03:53:59.302Z,1012.05
2018-03-14T03:55:08.527Z,1012.05
2018-03-14T03:56:17.489Z,1012.06
2018-03-14T03:57:26.981Z,1012.07
2018-03-14T03:58:36.204Z,1012.07
2018-03-14T03:59:45.167Z,1012.09
2018-03-14T04:00:54.655Z,1012.1
2018-03-14T04:02:03.342Z,1012.13
2018-03-14T04:03:12.566Z,1012.09
2018-03-14T04:04:21.533Z,1012.11
2018-03-14T04:05:30.753Z,1012.16
2018-03-14T04:06:39.713Z,1012.17
2018-03-14T04:07:49.476Z,1012.22
2018-03-14T04:08:58.170Z,1012.22
2018-03-14T04:10:07.931Z,1012.2
2018-03-14T04:11:17.160Z,1012.25
2018-03-14T04:12:26.653Z,1012.24
2018-03-14T04:13:36.147Z,1012.24
2018-03-14T04:14:44.842Z,1012.25
2018-03-14T04:15:54.069Z,1012.25
2018-03-14T04:17:03.026Z,1012.26
2018-03-14T04:18:11.983Z,1012.25
2018-03-14T04:19:21.209Z,1012.27
2018-03-14T04:20:29.901Z,1012.25
2018-03-14T04:21:39.125Z,1012.29
2018-03-14T04:22:48.351Z,1012.25
2018-03-14T04:23:57.337Z,1012.26
2018-03-14T04:25:06.264Z,1012.23
2018-03-14T04:26:14.955Z,1012.26
2018-03-14T04:27:24.183Z,1012.22
2018-03-14T04:28:33.953Z,1012.23
2018-03-14T04:29:42.914Z,1012.23
2018-03-14T04:30:51.871Z,1012.22
2018-03-14T04:32:00.831Z,1012.25
2018-03-14T04:33:09.784Z,1012.28
2018-03-14T04:34:19.014Z,1012.27
2018-03-14T04:35:28.237Z,1012.28
2018-03-14T04:36:37.200Z,1012.26
2018-03-14T04:37:46.970Z,1012.3
2018-03-14T04:38:56.195Z,1012.31
2018-03-14T04:40:04.886Z,1012.26
2018-03-14T04:41:13.842Z,1012.3
2018-03-14T04:42:23.610Z,1012.28
2018-03-14T04:43:32.579Z,1012.24
2018-03-14T04:44:41.537Z,1012.23
2018-03-14T04:45:50.774Z,1012.22
2018-03-14T04:46:59.730Z,1012.21
2018-03-14T04:48:09.492Z,1012.2
2018-03-14T04:49:18.185Z,1012.24
2018-03-14T04:50:27.687Z,1012.25
2018-03-14T04:51:36.652Z,1012.23
2018-03-14T04:52:46.144Z,1012.26
2018-03-14T04:53:55.102Z,1012.31
2018-03-14T04:55:04.869Z,1012.27
2018-03-14T04:56:14.364Z,1012.3
2018-03-14T04:57:23.653Z,1012.26
2018-03-14T04:58:32.882Z,1012.28
2018-03-14T04:59:42.113Z,1012.28
2018-03-14T05:00:51.606Z,1012.27
2018-03-14T05:02:00.562Z,1012.29
2018-03-14T05:03:09.784Z,1012.27
2018-03-14T05:04:19.287Z,1012.33
2018-03-14T05:05:27.978Z,1012.29
2018-03-14T05:06:36.936Z,1012.32
2018-03-14T05:07:46.164Z,1012.34
2018-03-14T05:08:55.657Z,1012.38
2018-03-14T05:10:05.161Z,1012.34
2018-03-14T05:11:14.654Z,1012.39
2018-03-14T05:12:23.880Z,1012.37
2018-03-14T05:13:33.106Z,1012.4
2018-03-14T05:14:41.798Z,1012.41
2018-03-14T05:15:51.860Z,1012.38
2018-03-14T05:17:00.816Z,1012.38
2018-03-14T05:18:10.044Z,1012.42
2018-03-14T05:19:19.003Z,1012.41
2018-03-14T05:20:28.239Z,1012.44
2018-03-14T05:21:37.728Z,1012.44
2018-03-14T05:22:46.947Z,1012.47
2018-03-14T05:23:56.710Z,1012.49
2018-03-14T05:25:05.935Z,1012.47
2018-03-14T05:26:15.437Z,1012.46
2018-03-14T05:27:24.662Z,1012.5
2018-03-14T05:28:34.440Z,1012.46
2018-03-14T05:29:43.941Z,1012.49
2018-03-14T05:30:52.632Z,1012.48
2018-03-14T05:32:01.863Z,1012.5
2018-03-14T05:33:10.827Z,1012.52
2018-03-14T05:34:20.327Z,1012.53
2018-03-14T05:35:29.018Z,1012.54
2018-03-14T05:36:38.250Z,1012.56
2018-03-14T05:37:48.016Z,1012.58
2018-03-14T05:38:56.972Z,1012.55
2018-03-14T05:40:05.931Z,1012.56
2018-03-14T05:41:14.893Z,1012.6
2018-03-14T05:42:23.850Z,1012.56
2018-03-14T05:43:33.352Z,1012.6
2018-03-14T05:44:42.041Z,1012.58
2018-03-14T05:45:51.539Z,1012.58
2018-03-14T05:47:01.042Z,1012.62
2018-03-14T05:48:10.266Z,1012.63
2018-03-14T05:49:19.229Z,1012.64
2018-03-14T05:50:28.462Z,1012.63
2018-03-14T05:51:37.702Z,1012.62
2018-03-14T05:52:46.661Z,1012.62
2018-03-14T05:53:55.889Z,1012.67
2018-03-14T05:55:05.117Z,1012.71
2018-03-14T05:56:14.073Z,1012.76
2018-03-14T05:57:23.027Z,1012.72
2018-03-14T05:58:32.525Z,1012.74
2018-03-14T05:59:41.254Z,1012.76
2018-03-14T06:00:49.908Z,1012.76
2018-03-14T06:01:59.130Z,1012.78
2018-03-14T06:03:08.631Z,1012.77
2018-03-14T06:04:17.595Z,1012.75
2018-03-14T06:05:26.288Z,1012.82
2018-03-14T06:06:35.515Z,1012.76
2018-03-14T06:07:44.474Z,1012.79
2018-03-14T06:08:53.432Z,1012.82
2018-03-14T06:10:02.124Z,1012.81
2018-03-14T06:11:11.628Z,1012.82
2018-03-14T06:12:20.321Z,1012.82
2018-03-14T06:13:29.279Z,1012.78
2018-03-14T06:14:38.769Z,1012.81
2018-03-14T06:15:47.724Z,1012.78
2018-03-14T06:16:56.955Z,1012.81
2018-03-14T06:18:05.916Z,1012.78
2018-03-14T06:19:14.874Z,1012.78
2018-03-14T06:20:24.101Z,1012.81
2018-03-14T06:21:32.794Z,1012.8
2018-03-14T06:22:41.754Z,1012.83
2018-03-14T06:23:50.978Z,1012.89
2018-03-14T06:25:00.258Z,1012.8
2018-03-14T06:26:10.035Z,1012.79
2018-03-14T06:27:19.261Z,1012.82
2018-03-14T06:28:28.218Z,1012.87
2018-03-14T06:29:37.460Z,1012.87
2018-03-14T06:30:46.723Z,1012.86
2018-03-14T06:31:55.948Z,1012.89
2018-03-14T06:33:05.439Z,1012.91
2018-03-14T06:34:14.126Z,1012.92
2018-03-14T06:35:23.624Z,1012.94
2018-03-14T06:36:32.841Z,1012.89
2018-03-14T06:37:42.066Z,1012.96
2018-03-14T06:38:51.556Z,1012.92
2018-03-14T06:40:00.782Z,1012.96
2018-03-14T06:41:09.471Z,1013.05
2018-03-14T06:42:18.974Z,1013.02
2018-03-14T06:43:28.475Z,1013
2018-03-14T06:44:37.693Z,1013.03
2018-03-14T06:45:47.193Z,1013.04
2018-03-14T06:46:56.421Z,1013.06
2018-03-14T06:48:05.912Z,1013.09
2018-03-14T06:49:15.408Z,1013.11
2018-03-14T06:50:24.365Z,1013.17
2018-03-14T06:51:33.323Z,1013.14
2018-03-14T06:52:42.545Z,1013.18
2018-03-14T06:53:51.504Z,1013.18
2018-03-14T06:55:00.788Z,1013.19
2018-03-14T06:56:10.494Z,1013.22
2018-03-14T06:57:19.451Z,1013.24
2018-03-14T06:58:28.678Z,1013.28
2018-03-14T06:59:38.179Z,1013.31
2018-03-14T07:00:47.401Z,1013.31
2018-03-14T07:01:56.628Z,1013.31
2018-03-14T07:03:05.896Z,1013.34
2018-03-14T07:04:15.128Z,1013.3
2018-03-14T07:05:24.359Z,1013.28
2018-03-14T07:06:33.853Z,1013.29
2018-03-14T07:07:42.814Z,1013.25
2018-03-14T07:08:51.766Z,1013.29
2018-03-14T07:10:01.257Z,1013.35
2018-03-14T07:11:10.217Z,1013.32
2018-03-14T07:12:19.533Z,1013.33
2018-03-14T07:13:29.032Z,1013.36
2018-03-14T07:14:38.530Z,1013.37
2018-03-14T07:15:47.215Z,1013.37
2018-03-14T07:16:55.904Z,1013.41
2018-03-14T07:18:04.590Z,1013.42
2018-03-14T07:19:14.087Z,1013.45
2018-03-14T07:20:23.043Z,1013.46
2018-03-14T07:21:31.735Z,1013.41
2018-03-14T07:22:41.229Z,1013.43
2018-03-14T07:23:50.189Z,1013.45
2018-03-14T07:24:59.416Z,1013.47
2018-03-14T07:26:08.406Z,1013.48
2018-03-14T07:27:17.910Z,1013.49
2018-03-14T07:28:26.869Z,1013.45
2018-03-14T07:29:36.479Z,1013.48
2018-03-14T07:30:45.702Z,1013.47
2018-03-14T07:31:54.658Z,1013.44
2018-03-14T07:33:03.346Z,1013.47
2018-03-14T07:34:12.036Z,1013.44
2018-03-14T07:35:21.285Z,1013.44
2018-03-14T07:36:30.782Z,1013.44
2018-03-14T07:37:39.742Z,1013.45
2018-03-14T07:38:48.705Z,1013.45
2018-03-14T07:39:57.659Z,1013.46
2018-03-14T07:41:06.888Z,1013.5
2018-03-14T07:42:16.379Z,1013.49
2018-03-14T07:43:25.605Z,1013.47
2018-03-14T07:44:35.104Z,1013.51
2018-03-14T07:45:44.989Z,1013.53
2018-03-14T07:46:53.939Z,1013.53
2018-03-14T07:48:02.904Z,1013.52
2018-03-14T07:49:12.394Z,1013.55
2018-03-14T07:50:21.083Z,1013.59
2018-03-14T07:51:30.046Z,1013.59
2018-03-14T07:52:39.310Z,1013.56
2018-03-14T07:53:48.230Z,1013.59
2018-03-14T07:54:57.186Z,1013.59
2018-03-14T07:56:06.144Z,1013.59
2018-03-14T07:57:15.647Z,1013.64
2018-03-14T07:58:24.613Z,1013.67
2018-03-14T07:59:34.104Z,1013.7
2018-03-14T08:00:43.334Z,1013.68
2018-03-14T08:01:52.557Z,1013.7
2018-03-14T08:03:01.251Z,1013.67
2018-03-14T08:04:10.478Z,1013.67
2018-03-14T08:05:19.967Z,1013.68
2018-03-14T08:06:29.475Z,1013.68
2018-03-14T08:07:38.704Z,1013.67
2018-03-14T08:08:48.034Z,1013.69
2018-03-14T08:09:56.722Z,1013.73
2018-03-14T08:11:05.946Z,1013.71
2018-03-14T08:12:15.176Z,1013.7
2018-03-14T08:13:24.476Z,1013.72
2018-03-14T08:14:34.866Z,1013.72
2018-03-14T08:15:44.098Z,1013.74
2018-03-14T08:16:53.054Z,1013.74
2018-03-14T08:18:02.013Z,1013.71
2018-03-14T08:19:11.241Z,1013.71
2018-03-14T08:20:20.791Z,1013.72
2018-03-14T08:21:29.422Z,1013.75
2018-03-14T08:22:38.647Z,1013.8
2018-03-14T08:23:47.874Z,1013.79
2018-03-14T08:24:57.366Z,1013.78
2018-03-14T08:26:07.124Z,1013.78
2018-03-14T08:27:16.669Z,1013.8
2018-03-14T08:28:26.163Z,1013.81
2018-03-14T08:29:35.390Z,1013.83
2018-03-14T08:30:44.087Z,1013.82
2018-03-14T08:31:53.049Z,1013.76
2018-03-14T08:33:02.285Z,1013.79
2018-03-14T08:34:11.514Z,1013.82
2018-03-14T08:35:21.598Z,1013.8
2018-03-14T08:36:30.556Z,1013.78
2018-03-14T08:37:39.784Z,1013.8
2018-03-14T08:38:48.737Z,1013.79
2018-03-14T08:39:57.427Z,1013.82
2018-03-14T08:41:06.652Z,1013.82
2018-03-14T08:42:15.610Z,1013.86
2018-03-14T08:43:24.834Z,1013.86
2018-03-14T08:44:33.796Z,1013.91
2018-03-14T08:45:42.761Z,1013.92
2018-03-14T08:46:51.487Z,1013.92
2018-03-14T08:48:00.770Z,1014.02
2018-03-14T08:49:10.533Z,1014.02
2018-03-14T08:50:19.802Z,1014.04
2018-03-14T08:51:29.637Z,1014.03
2018-03-14T08:52:38.599Z,1014
2018-03-14T08:53:47.557Z,1014.01
2018-03-14T08:54:56.249Z,1013.97
2018-03-14T08:56:05.207Z,1013.98
2018-03-14T08:57:14.699Z,1013.98
2018-03-14T08:58:23.387Z,1014
2018-03-14T08:59:32.655Z,1013.98
2018-03-14T09:00:41.625Z,1013.98
2018-03-14T09:01:50.577Z,1014.02
2018-03-14T09:02:59.274Z,1014.05
2018-03-14T09:04:07.959Z,1014.07
2018-03-14T09:05:17.186Z,1014.06
2018-03-14T09:06:26.415Z,1014.04
2018-03-14T09:07:35.106Z,1014.01
2018-03-14T09:08:44.608Z,1014.03
2018-03-14T09:09:54.105Z,1014.03
2018-03-14T09:11:03.067Z,1014.05
2018-03-14T09:12:12.667Z,1014.05
2018-03-14T09:13:21.624Z,1014.08
2018-03-14T09:14:30.580Z,1014.1
2018-03-14T09:15:39.807Z,1014.12
2018-03-14T09:16:49.028Z,1014.09
2018-03-14T09:17:57.991Z,1014.08
2018-03-14T09:19:06.682Z,1014.07
2018-03-14T09:20:15.909Z,1014.09
2018-03-14T09:21:25.447Z,1014.08
2018-03-14T09:22:34.897Z,1014.1
2018-03-14T09:23:44.656Z,1014.08
2018-03-14T09:24:53.884Z,1014.08
2018-03-14T09:26:03.111Z,1014.07
2018-03-14T09:27:12.062Z,1014.1
2018-03-14T09:28:21.823Z,1014.06
2018-03-14T09:29:31.313Z,1014.12
2018-03-14T09:30:40.812Z,1014.06
2018-03-14T09:31:50.578Z,1014.12
2018-03-14T09:32:59.272Z,1014.1
2018-03-14T09:34:08.772Z,1014.16
2018-03-14T09:35:17.728Z,1014.18
2018-03-14T09:36:26.959Z,1014.17
2018-03-14T09:37:35.927Z,1014.16
2018-03-14T09:38:45.152Z,1014.17
2018-03-14T09:39:54.646Z,1014.14
2018-03-14T09:41:03.603Z,1014.19
2018-03-14T09:42:12.827Z,1014.15
2018-03-14T09:43:21.517Z,1014.16
2018-03-14T09:44:30.476Z,1014.13
2018-03-14T09:45:39.709Z,1014.08
2018-03-14T09:46:48.940Z,1014.12
2018-03-14T09:47:58.164Z,1014.11
2018-03-14T09:49:07.660Z,1014.15
2018-03-14T09:50:16.889Z,1014.12
2018-03-14T09:51:26.121Z,1014.15
2018-03-14T09:52:35.345Z,1014.11
2018-03-14T09:53:44.033Z,1014.11
2018-03-14T09:54:53.256Z,1014.14
2018-03-14T09:56:02.486Z,1014.15
2018-03-14T09:57:11.731Z,1014.09
2018-03-14T09:58:21.247Z,1014.08
2018-03-14T09:59:30.746Z,1014.12
2018-03-14T10:00:40.245Z,1014.06
2018-03-14T10:01:49.509Z,1014.1
2018-03-14T10:02:58.469Z,1014.13
2018-03-14T10:04:07.711Z,1014.14
2018-03-14T10:05:16.940Z,1014.14
2018-03-14T10:06:25.900Z,1014.17
2018-03-14T10:07:35.660Z,1014.14
2018-03-14T10:08:45.426Z,1014.15
2018-03-14T10:09:54.385Z,1014.16
2018-03-14T10:11:04.151Z,1014.13
2018-03-14T10:12:13.116Z,1014.11
2018-03-14T10:13:23.146Z,1014.13
2018-03-14T10:14:32.371Z,1014.12
2018-03-14T10:15:41.866Z,1014.12
2018-03-14T10:16:51.628Z,1014.13
2018-03-14T10:18:01.407Z,1014.15
2018-03-14T10:19:10.815Z,1014.09
2018-03-14T10:20:20.045Z,1014.13
2018-03-14T10:21:29.271Z,1014.12
2018-03-14T10:22:38.765Z,1014.11
2018-03-14T10:23:47.722Z,1014.12
2018-03-14T10:24:56.959Z,1014.12
2018-03-14T10:26:05.921Z,1014.15
2018-03-14T10:27:15.412Z,1014.13
2018-03-14T10:28:24.640Z,1014.14
2018-03-14T10:29:33.868Z,1014.16
2018-03-14T10:30:42.828Z,1014.14
2018-03-14T10:31:52.054Z,1014.1
2018-03-14T10:33:00.751Z,1014.09
2018-03-14T10:34:09.985Z,1014.09
2018-03-14T10:35:19.224Z,1014.12
2018-03-14T10:36:28.439Z,1014.18
2018-03-14T10:37:37.937Z,1014.18
2018-03-14T10:38:47.427Z,1014.18
2018-03-14T10:39:56.917Z,1014.16
2018-03-14T10:41:05.916Z,1014.16
2018-03-14T10:42:15.370Z,1014.19
2018-03-14T10:43:24.604Z,1014.18
2018-03-14T10:44:33.827Z,1014.19
2018-03-14T10:45:42.791Z,1014.24
2018-03-14T10:46:52.022Z,1014.25
2018-03-14T10:48:01.518Z,1014.28
2018-03-14T10:49:11.045Z,1014.26
2018-03-14T10:50:20.010Z,1014.23
2018-03-14T10:51:28.977Z,1014.25
2018-03-14T10:52:38.199Z,1014.26
2018-03-14T10:53:47.434Z,1014.26
2018-03-14T10:54:56.659Z,1014.26
2018-03-14T10:56:05.385Z,1014.23
2018-03-14T10:57:14.840Z,1014.24
2018-03-14T10:58:24.068Z,1014.23
2018-03-14T10:59:33.295Z,1014.26
2018-03-14T11:00:42.792Z,1014.24
2018-03-14T11:01:52.018Z,1014.24
2018-03-14T11:03:00.971Z,1014.23
2018-03-14T11:04:10.196Z,1014.28
2018-03-14T11:05:19.426Z,1014.31
2018-03-14T11:06:28.655Z,1014.33
2018-03-14T11:07:38.155Z,1014.33
2018-03-14T11:08:47.113Z,1014.32
2018-03-14T11:09:56.344Z,1014.33
2018-03-14T11:11:05.839Z,1014.28
2018-03-14T11:12:14.798Z,1014.33
2018-03-14T11:13:24.292Z,1014.29
2018-03-14T11:14:33.256Z,1014.28
2018-03-14T11:15:42.757Z,1014.27
2018-03-14T11:16:51.450Z,1014.19
2018-03-14T11:18:01.214Z,1014.17
2018-03-14T11:19:11.068Z,1014.15
2018-03-14T11:20:20.324Z,1014.13
2018-03-14T11:21:30.271Z,1014.15
2018-03-14T11:22:39.892Z,1014.17
2018-03-14T11:23:49.118Z,1014.17
2018-03-14T11:24:58.081Z,1014.17
2018-03-14T11:26:07.317Z,1014.12
2018-03-14T11:27:16.809Z,1014.16
2018-03-14T11:28:26.036Z,1014.16
2018-03-14T11:29:34.999Z,1014.13
2018-03-14T11:30:44.223Z,1014.12
2018-03-14T11:31:52.917Z,1014.12
2018-03-14T11:33:02.146Z,1014.08
2018-03-14T11:34:11.105Z,1014.09
2018-03-14T11:35:20.601Z,1014.13
2018-03-14T11:36:30.097Z,1014.11
2018-03-14T11:37:39.048Z,1014.13
2018-03-14T11:38:48.008Z,1014.09
2018-03-14T11:39:57.242Z,1014.12
2018-03-14T11:41:06.470Z,1014.14
2018-03-14T11:42:15.161Z,1014.03
2018-03-14T11:43:25.280Z,1014.05
2018-03-14T11:44:34.237Z,1014.05
2018-03-14T11:45:43.793Z,1014.04
2018-03-14T11:46:52.752Z,1014.01
2018-03-14T11:48:01.707Z,1013.96
2018-03-14T11:49:10.396Z,1014.01
2018-03-14T11:50:19.350Z,1013.98
2018-03-14T11:51:28.310Z,1014
2018-03-14T11:52:37.542Z,1013.98
2018-03-14T11:53:46.769Z,1013.98
2018-03-14T11:54:56.276Z,1013.95
2018-03-14T11:56:05.498Z,1013.95
2018-03-14T11:57:14.186Z,1013.96
2018-03-14T11:58:23.590Z,1013.93
2018-03-14T11:59:32.770Z,1013.89
2018-03-14T12:00:42.263Z,1013.85
2018-03-14T12:01:51.500Z,1013.87
2018-03-14T12:03:00.459Z,1013.82
2018-03-14T12:04:09.150Z,1013.81
2018-03-14T12:05:18.372Z,1013.81
2018-03-14T12:06:27.863Z,1013.77
2018-03-14T12:07:37.147Z,1013.77
2018-03-14T12:08:46.369Z,1013.79
2018-03-14T12:09:55.867Z,1013.79
2018-03-14T12:11:05.418Z,1013.8
2018-03-14T12:12:14.463Z,1013.84
2018-03-14T12:13:24.414Z,1013.85
2018-03-14T12:14:33.106Z,1013.89
2018-03-14T12:15:41.796Z,1013.89
2018-03-14T12:16:50.757Z,1013.9
2018-03-14T12:17:59.984Z,1013.9
2018-03-14T12:19:09.217Z,1013.89
2018-03-14T12:20:18.451Z,1013.89
2018-03-14T12:21:27.406Z,1013.91
2018-03-14T12:22:36.636Z,1013.91
2018-03-14T12:23:45.861Z,1013.9
2018-03-14T12:24:55.099Z,1013.87
2018-03-14T12:26:04.328Z,1013.89
2018-03-14T12:27:13.017Z,1013.88
2018-03-14T12:28:21.708Z,1013.86
2018-03-14T12:29:30.931Z,1013.85
2018-03-14T12:30:40.160Z,1013.88
2018-03-14T12:31:49.390Z,1013.86
2018-03-14T12:32:58.624Z,1013.85
2018-03-14T12:34:07.851Z,1013.84
2018-03-14T12:35:16.541Z,1013.92
2018-03-14T12:36:25.497Z,1013.88
2018-03-14T12:37:34.722Z,1013.93
2018-03-14T12:38:43.950Z,1013.9
2018-03-14T12:39:53.174Z,1013.96
2018-03-14T12:41:02.724Z,1013.96
2018-03-14T12:42:11.695Z,1013.89
2018-03-14T12:43:21.600Z,1013.83
2018-03-14T12:44:30.291Z,1013.81
2018-03-14T12:45:39.517Z,1013.79
2018-03-14T12:46:48.473Z,1013.77
2018-03-14T12:47:57.704Z,1013.77
2018-03-14T12:49:07.211Z,1013.72
2018-03-14T12:50:16.438Z,1013.69
2018-03-14T12:51:25.932Z,1013.63
2018-03-14T12:52:35.160Z,1013.65
2018-03-14T12:53:44.334Z,1013.63
2018-03-14T12:54:53.755Z,1013.62
2018-03-14T12:56:04.699Z,1013.61
2018-03-14T12:57:14.781Z,1013.56
2018-03-14T12:58:24.217Z,1013.58
2018-03-14T12:59:35.049Z,1013.57
2018-03-14T13:00:44.601Z,1013.6
2018-03-14T13:01:54.830Z,1013.54
2018-03-14T13:03:04.831Z,1013.51
2018-03-14T13:04:14.135Z,1013.54
2018-03-14T13:05:24.208Z,1013.48
2018-03-14T13:06:34.636Z,1013.46
2018-03-14T13:07:44.124Z,1013.43
2018-03-14T13:08:53.207Z,1013.4
2018-03-14T13:10:02.510Z,1013.38
2018-03-14T13:11:12.071Z,1013.36
2018-03-14T13:12:21.441Z,1013.31
2018-03-14T13:13:30.451Z,1013.29
2018-03-14T13:14:40.411Z,1013.27
2018-03-14T13:15:49.438Z,1013.24
2018-03-14T13:16:58.515Z,1013.23
2018-03-14T13:18:08.121Z,1013.21
2018-03-14T13:19:17.663Z,1013.19
2018-03-14T13:20:27.413Z,1013.18
2018-03-14T13:21:36.970Z,1013.2
2018-03-14T13:22:46.271Z,1013.19
2018-03-14T13:23:55.867Z,1013.24
2018-03-14T13:25:06.872Z,1013.2
2018-03-14T13:26:16.782Z,1013.22
2018-03-14T13:27:26.147Z,1013.23
2018-03-14T13:28:35.440Z,1013.22
2018-03-14T13:29:46.359Z,1013.21
2018-03-14T13:30:56.675Z,1013.2
2018-03-14T13:32:07.184Z,1013.22
2018-03-14T13:33:17.476Z,1013.24
2018-03-14T13:34:26.760Z,1013.24
2018-03-14T13:35:35.512Z,1013.21
2018-03-14T13:36:45.583Z,1013.22
